Time;durP1;ratioP1;P1;durP2;ratioP2;P2;SDS_P1;SDS_P2;PMS_P1;PMS_P2;Temp;Humidity;BMP_temperature;BMP_pressure;BME280_temperature;BME280_humidity;BME280_pressure;Samples;Min_cycle;Max_cycle;Signal;HPM_P1;HPM_P2
2024/03/08 06:00:19;;;;;;;33.30;17.65;;;2.30;94.50;;;;;;4956943;23;20026;31
2024/03/08 06:02:20;;;;;;;32.88;17.98;;;2.40;94.50;;;;;;4031026;29;20049;-76
2024/03/08 06:04:22;;;;;;;31.00;17.08;;;2.50;94.40;;;;;;4036835;29;20061;-77
2024/03/08 06:06:25;;;;;;;31.25;17.02;;;2.50;94.20;;;;;;4034134;29;20062;-75
2024/03/08 06:08:29;;;;;;;31.30;16.80;;;2.50;94.30;;;;;;4024234;29;20041;-78
2024/03/08 06:10:32;;;;;;;32.65;17.27;;;2.60;94.40;;;;;;4029977;29;20049;-76
2024/03/08 06:12:39;;;;;;;30.05;17.27;;;2.60;94.10;;;;;;4027555;29;20050;-75
2024/03/08 06:14:43;;;;;;;29.48;16.15;;;2.70;94.10;;;;;;4014544;29;20050;-77
2024/03/08 06:16:46;;;;;;;30.25;16.80;;;2.70;93.80;;;;;;4017073;29;20121;-76
2024/03/08 06:18:49;;;;;;;29.40;16.67;;;2.70;93.90;;;;;;4026486;29;20071;-76
2024/03/08 06:20:51;;;;;;;31.70;15.93;;;2.70;93.80;;;;;;4027279;29;20049;-76
2024/03/08 06:22:54;;;;;;;29.77;16.70;;;2.70;93.50;;;;;;4022383;29;20502;-77
2024/03/08 06:24:55;;;;;;;26.73;15.30;;;2.50;93.70;;;;;;4020438;29;20069;-75
2024/03/08 06:26:58;;;;;;;29.38;16.52;;;2.50;93.80;;;;;;4021152;29;20056;-75
2024/03/08 06:29:00;;;;;;;30.60;17.23;;;2.60;93.80;;;;;;4019966;29;20062;-76
2024/03/08 06:31:03;;;;;;;30.63;17.02;;;2.40;93.80;;;;;;4002480;29;20080;-76
2024/03/08 06:33:07;;;;;;;32.28;17.40;;;2.50;94.00;;;;;;4024897;29;20468;-77
2024/03/08 06:35:10;;;;;;;31.55;17.55;;;2.60;93.90;;;;;;4013329;29;20503;-77
2024/03/08 06:37:12;;;;;;;30.73;16.95;;;2.70;93.90;;;;;;4024282;29;20110;-77
2024/03/08 06:39:15;;;;;;;30.25;16.52;;;2.70;94.00;;;;;;4030050;29;20121;-78
2024/03/08 06:41:17;;;;;;;31.25;17.80;;;2.80;93.90;;;;;;4018346;29;20053;-77
2024/03/08 06:43:22;;;;;;;34.67;18.23;;;2.90;93.80;;;;;;4018598;29;20057;-75
2024/03/08 06:45:23;;;;;;;32.30;18.38;;;2.90;93.80;;;;;;4022456;29;20514;-75
2024/03/08 06:47:25;;;;;;;31.75;17.58;;;3.00;93.80;;;;;;4009827;29;20056;-78
2024/03/08 06:49:29;;;;;;;33.78;17.40;;;3.10;93.70;;;;;;4015893;29;20053;-75
2024/03/08 06:51:32;;;;;;;30.60;16.98;;;3.10;93.90;;;;;;4038017;29;20049;-76
2024/03/08 06:53:35;;;;;;;37.38;19.75;;;3.20;93.90;;;;;;4022885;29;20105;-78
2024/03/08 06:55:37;;;;;;;32.70;17.83;;;3.20;93.80;;;;;;4039907;29;20095;-78
2024/03/08 06:57:40;;;;;;;30.73;16.80;;;3.20;93.70;;;;;;4041065;29;20543;-75
2024/03/08 06:59:42;;;;;;;33.33;17.30;;;3.20;93.50;;;;;;4026305;29;20407;-77
2024/03/08 07:01:44;;;;;;;34.17;18.27;;;3.30;93.60;;;;;;4026228;29;20496;-77
2024/03/08 07:03:46;;;;;;;31.42;17.33;;;3.30;93.40;;;;;;4047449;29;20408;-74
2024/03/08 07:05:49;;;;;;;29.25;16.52;;;3.30;93.30;;;;;;4028735;29;20050;-74
2024/03/08 07:07:51;;;;;;;30.00;16.40;;;3.30;93.50;;;;;;4045004;29;20114;-75
2024/03/08 07:09:54;;;;;;;29.70;17.02;;;3.30;93.60;;;;;;4041765;29;20510;-75
2024/03/08 07:11:55;;;;;;;29.98;16.95;;;3.30;93.50;;;;;;4041182;29;20049;-73
2024/03/08 07:13:58;;;;;;;29.67;17.17;;;3.20;93.80;;;;;;4042997;29;20073;-79
2024/03/08 07:16:00;;;;;;;32.00;17.63;;;3.30;93.90;;;;;;4044274;29;20487;-76
2024/03/08 07:18:03;;;;;;;33.38;18.80;;;3.20;93.90;;;;;;4047371;29;20052;-78
2024/03/08 07:20:11;;;;;;;33.58;18.35;;;3.20;94.00;;;;;;4048117;29;20060;-78
2024/03/08 07:22:15;;;;;;;35.78;19.67;;;3.20;94.00;;;;;;4043765;29;20080;-78
2024/03/08 07:24:37;;;;;;;33.63;18.63;;;3.10;94.00;;;;;;4043644;29;20448;-73
2024/03/08 07:26:40;;;;;;;35.10;19.17;;;3.10;94.00;;;;;;4039051;29;20478;-74
2024/03/08 07:28:42;;;;;;;36.60;19.65;;;3.20;94.10;;;;;;4032586;29;20072;-77
2024/03/08 07:30:55;;;;;;;33.13;18.88;;;3.20;93.90;;;;;;4044341;29;20052;-75
2024/03/08 07:32:57;;;;;;;33.92;18.88;;;3.20;93.90;;;;;;4028480;29;20444;-75
2024/03/08 07:35:00;;;;;;;29.75;16.58;;;3.30;94.00;;;;;;4038965;29;20045;-75
2024/03/08 07:37:03;;;;;;;31.20;17.08;;;3.40;94.00;;;;;;4038591;29;20049;-76
2024/03/08 07:39:11;;;;;;;31.13;16.55;;;3.50;93.90;;;;;;4056587;29;20060;-77
2024/03/08 07:41:14;;;;;;;35.75;18.05;;;3.60;94.00;;;;;;4047200;29;20056;-76
2024/03/08 07:43:16;;;;;;;30.55;16.15;;;3.70;93.70;;;;;;4055820;29;20088;-77
2024/03/08 07:45:18;;;;;;;31.70;17.98;;;3.70;93.30;;;;;;4055761;29;20060;-76
2024/03/08 07:47:20;;;;;;;32.50;17.95;;;3.70;93.30;;;;;;4044019;29;20053;-76
2024/03/08 07:49:22;;;;;;;30.60;17.27;;;3.80;93.40;;;;;;4044161;29;20514;-74
2024/03/08 07:51:37;;;;;;;30.73;17.13;;;3.90;93.50;;;;;;4041802;29;20418;-76
2024/03/08 07:53:41;;;;;;;30.30;17.33;;;4.00;93.40;;;;;;4035881;29;20045;-76
2024/03/08 07:55:44;;;;;;;32.95;18.45;;;4.00;93.50;;;;;;4045851;29;20049;-77
2024/03/08 07:57:47;;;;;;;32.55;17.48;;;4.10;93.50;;;;;;4053093;29;20072;-78
2024/03/08 07:59:49;;;;;;;30.15;17.25;;;4.20;93.50;;;;;;4043136;29;20084;-78
2024/03/08 08:01:51;;;;;;;29.02;17.50;;;4.30;93.60;;;;;;4046686;29;20063;-77
2024/03/08 08:03:53;;;;;;;77.22;26.92;;;4.30;93.70;;;;;;4048057;29;20051;-78
2024/03/08 08:05:55;;;;;;;53.33;21.77;;;4.40;93.40;;;;;;4043425;29;20063;-74
2024/03/08 08:07:57;;;;;;;38.05;19.58;;;4.50;92.90;;;;;;4042171;29;20057;-75
2024/03/08 08:09:58;;;;;;;29.92;16.83;;;4.60;92.80;;;;;;4041157;29;20049;-75
2024/03/08 08:12:03;;;;;;;30.90;17.17;;;4.60;92.60;;;;;;4040486;29;20056;-76
2024/03/08 08:14:04;;;;;;;30.85;17.75;;;4.70;92.20;;;;;;4040865;29;20483;-78
2024/03/08 08:16:07;;;;;;;30.88;17.05;;;4.70;92.10;;;;;;4040791;29;20100;-77
2024/03/08 08:18:09;;;;;;;31.35;17.27;;;4.80;92.20;;;;;;4041508;29;20498;-76
2024/03/08 08:20:13;;;;;;;30.80;17.40;;;4.80;92.10;;;;;;4044701;29;20053;-74
2024/03/08 08:22:15;;;;;;;29.70;17.20;;;4.90;92.00;;;;;;4043922;29;20049;-76
2024/03/08 08:24:17;;;;;;;31.42;17.13;;;4.90;91.50;;;;;;4047684;29;20063;-75
2024/03/08 08:26:21;;;;;;;26.85;15.98;;;5.00;91.40;;;;;;4047740;29;20060;-76
2024/03/08 08:28:24;;;;;;;31.27;17.55;;;5.00;91.40;;;;;;4050741;29;20057;-76
2024/03/08 08:30:27;;;;;;;30.00;16.75;;;5.10;91.20;;;;;;4047574;29;20459;-75
2024/03/08 08:32:29;;;;;;;27.00;16.52;;;5.10;91.20;;;;;;4044455;29;20053;-76
2024/03/08 08:34:31;;;;;;;30.48;16.63;;;5.20;91.00;;;;;;4050093;29;20101;-75
2024/03/08 08:36:33;;;;;;;28.35;16.63;;;5.20;91.20;;;;;;4050844;29;20049;-76
2024/03/08 08:38:36;;;;;;;26.13;15.70;;;5.30;91.30;;;;;;4048307;29;20503;-76
2024/03/08 08:40:38;;;;;;;27.92;15.60;;;5.30;91.50;;;;;;4040406;29;20513;-74
2024/03/08 08:42:40;;;;;;;26.80;15.07;;;5.40;91.40;;;;;;4039868;29;20057;-76
2024/03/08 08:44:43;;;;;;;29.85;16.48;;;5.40;91.00;;;;;;4040450;29;20052;-76
2024/03/08 08:46:46;;;;;;;25.60;15.45;;;5.50;91.00;;;;;;4040815;29;20105;-75
2024/03/08 08:48:48;;;;;;;26.55;16.65;;;5.50;90.60;;;;;;4042476;29;20065;-80
2024/03/08 08:50:52;;;;;;;27.80;16.77;;;5.60;90.70;;;;;;4044980;29;20082;-81
2024/03/08 08:52:53;;;;;;;27.75;16.58;;;5.70;90.80;;;;;;4045007;29;20057;-78
2024/03/08 08:54:57;;;;;;;28.67;16.38;;;5.70;90.40;;;;;;4047988;29;20061;-79
2024/03/08 08:56:59;;;;;;;26.20;15.43;;;5.60;90.10;;;;;;4049109;29;20410;-75
2024/03/08 08:59:01;;;;;;;25.05;15.38;;;5.70;90.20;;;;;;4036633;29;20053;-75
2024/03/08 09:01:05;;;;;;;25.40;15.35;;;5.70;90.20;;;;;;4034500;29;20068;-75
2024/03/08 09:03:08;;;;;;;25.08;15.32;;;5.80;90.00;;;;;;4044154;29;20407;-77
2024/03/08 09:05:09;;;;;;;29.05;16.95;;;5.80;90.20;;;;;;4042903;29;20053;-77
2024/03/08 09:07:13;;;;;;;34.70;19.52;;;5.70;89.10;;;;;;4044829;29;20049;-77
2024/03/08 09:09:17;;;;;;;27.40;15.18;;;5.80;89.50;;;;;;4049825;29;20057;-81
2024/03/08 09:11:19;;;;;;;26.17;16.17;;;5.80;88.80;;;;;;4037354;29;20078;-80
2024/03/08 09:13:21;;;;;;;25.10;15.18;;;5.80;88.70;;;;;;4031847;29;20140;-79
2024/03/08 09:15:23;;;;;;;26.25;14.43;;;5.90;88.10;;;;;;4048944;29;20045;-78
2024/03/08 09:17:26;;;;;;;22.30;14.25;;;5.90;88.20;;;;;;4050439;29;20518;-79
2024/03/08 09:19:28;;;;;;;21.15;13.07;;;5.90;88.10;;;;;;4045349;29;20057;-79
2024/03/08 09:21:31;;;;;;;26.13;15.05;;;6.00;87.50;;;;;;4042495;29;20057;-80
2024/03/08 09:23:33;;;;;;;31.65;15.77;;;6.00;86.80;;;;;;4047019;29;20045;-77
2024/03/08 09:25:36;;;;;;;24.75;14.57;;;6.10;87.90;;;;;;4047000;29;20059;-78
2024/03/08 09:27:38;;;;;;;21.63;13.70;;;6.10;87.40;;;;;;4045535;29;20049;-78
2024/03/08 09:29:43;;;;;;;25.70;13.93;;;6.20;87.40;;;;;;4047461;29;20064;-80
2024/03/08 09:31:46;;;;;;;22.03;13.77;;;6.20;87.80;;;;;;4044575;29;20132;-77
2024/03/08 09:33:50;;;;;;;20.52;12.95;;;6.30;86.70;;;;;;4046847;29;20309;-78
2024/03/08 09:35:53;;;;;;;23.70;14.23;;;6.40;87.10;;;;;;4055849;29;20063;-78
2024/03/08 09:37:54;;;;;;;25.00;14.43;;;6.40;86.10;;;;;;4039664;29;20132;-77
2024/03/08 09:39:57;;;;;;;22.98;14.13;;;6.50;86.60;;;;;;4054327;29;20052;-75
2024/03/08 09:41:59;;;;;;;21.45;12.75;;;6.50;86.10;;;;;;4060572;29;20059;-79
2024/03/08 09:44:03;;;;;;;23.30;13.30;;;6.40;85.60;;;;;;4046326;29;20049;-76
2024/03/08 09:46:07;;;;;;;23.27;14.43;;;6.40;86.50;;;;;;4042936;29;20057;-77
2024/03/08 09:48:13;;;;;;;23.75;14.23;;;6.50;85.70;;;;;;4038321;29;20049;-76
2024/03/08 09:50:17;;;;;;;27.70;16.38;;;6.60;85.20;;;;;;4039151;29;20101;-78
2024/03/08 09:52:20;;;;;;;24.13;14.63;;;6.70;85.10;;;;;;4019821;29;20478;-80
2024/03/08 09:54:21;;;;;;;22.42;14.05;;;6.80;84.80;;;;;;4040009;29;20049;-78
2024/03/08 09:56:27;;;;;;;20.48;13.02;;;6.90;84.70;;;;;;4041085;29;20066;-78
2024/03/08 09:58:51;;;;;;;25.65;14.20;;;7.00;84.20;;;;;;4041440;29;20060;-79
2024/03/08 10:00:54;;;;;;;27.45;15.50;;;7.10;84.20;;;;;;4041298;29;20410;-83
2024/03/08 10:03:01;;;;;;;22.02;13.48;;;7.10;82.70;;;;;;4029858;29;20052;-80
2024/03/08 10:05:04;;;;;;;22.27;12.85;;;7.00;82.70;;;;;;4030544;29;20395;-74
2024/03/08 10:07:07;;;;;;;22.05;14.23;;;7.20;82.70;;;;;;4036366;29;20076;-78
2024/03/08 10:09:10;;;;;;;23.25;14.50;;;7.10;82.50;;;;;;4045768;29;20141;-78
2024/03/08 10:11:12;;;;;;;23.73;14.43;;;7.00;82.00;;;;;;4040460;29;20060;-77
2024/03/08 10:13:19;;;;;;;25.25;15.48;;;7.00;82.00;;;;;;4064939;29;20060;-78
2024/03/08 10:15:24;;;;;;;20.80;12.55;;;7.00;82.20;;;;;;4054273;29;20112;-80
2024/03/08 10:17:27;;;;;;;23.08;13.70;;;7.00;82.70;;;;;;4046054;29;20513;-74
2024/03/08 10:19:34;;;;;;;22.00;13.57;;;7.10;82.20;;;;;;4041271;29;20547;-79
2024/03/08 10:21:50;;;;;;;21.63;13.05;;;7.20;82.30;;;;;;4044785;29;20403;-79
2024/03/08 10:23:53;;;;;;;22.05;13.48;;;7.30;82.60;;;;;;4056411;29;20077;-78
2024/03/08 10:25:58;;;;;;;21.98;13.05;;;7.30;82.30;;;;;;4029564;29;20046;-77
2024/03/08 10:28:00;;;;;;;21.77;12.90;;;7.30;82.50;;;;;;4045222;29;20032;-78
2024/03/08 10:30:15;;;;;;;22.10;13.85;;;7.40;81.70;;;;;;4040206;29;20160;-80
2024/03/08 10:32:17;;;;;;;22.70;13.10;;;7.50;81.40;;;;;;4039985;29;20053;-77
2024/03/08 10:34:19;;;;;;;23.10;13.93;;;7.60;81.20;;;;;;4047647;29;20143;-78
2024/03/08 10:36:22;;;;;;;22.15;13.93;;;7.60;81.10;;;;;;4032259;29;20071;-75
2024/03/08 10:38:24;;;;;;;22.83;12.90;;;7.70;81.20;;;;;;4039851;29;20087;-78
2024/03/08 10:40:29;;;;;;;21.08;13.27;;;7.70;80.50;;;;;;4025517;29;20046;-77
2024/03/08 10:42:35;;;;;;;22.40;13.88;;;7.80;81.10;;;;;;4051944;29;20076;-78
2024/03/08 10:44:44;;;;;;;;;;;8.00;80.40;;;;;;4048030;29;20059;-81
2024/03/08 10:47:04;;;;;;;38.03;22.15;;;8.00;80.50;;;;;;4035746;29;19935;-77
2024/03/08 10:49:09;;;;;;;23.00;14.65;;;8.00;79.90;;;;;;4036791;29;20060;-77
2024/03/08 10:51:12;;;;;;;24.60;14.60;;;8.00;78.90;;;;;;4026708;29;20102;-78
2024/03/08 10:53:15;;;;;;;21.08;12.55;;;7.90;78.60;;;;;;4032077;29;20053;-82
2024/03/08 10:55:20;;;;;;;22.10;13.13;;;8.00;79.10;;;;;;4027440;29;20058;-78
2024/03/08 10:57:24;;;;;;;20.00;12.68;;;8.00;78.80;;;;;;4032773;29;20080;-80
2024/03/08 10:59:28;;;;;;;22.75;13.90;;;8.00;79.50;;;;;;4027337;29;20173;-78
2024/03/08 11:01:30;;;;;;;21.27;13.77;;;8.10;80.00;;;;;;4032049;29;20556;-78
2024/03/08 11:03:50;;;;;;;21.75;13.77;;;8.00;79.20;;;;;;4034405;29;20049;-76
2024/03/08 11:05:52;;;;;;;21.23;12.77;;;8.10;79.30;;;;;;4039267;29;20053;-77
2024/03/08 11:07:55;;;;;;;20.85;12.75;;;8.10;78.70;;;;;;4036582;29;20064;-82
2024/03/08 11:09:57;;;;;;;24.60;13.48;;;8.20;80.60;;;;;;4038141;29;20133;-80
2024/03/08 11:12:25;;;;;;;22.38;13.40;;;8.20;79.10;;;;;;4030238;29;20049;-79
2024/03/08 11:14:48;;;;;;;20.98;13.15;;;8.20;79.60;;;;;;4033087;29;20057;-81
2024/03/08 11:16:50;;;;;;;21.98;12.82;;;8.10;78.70;;;;;;4030108;29;20053;-80
2024/03/08 11:18:54;;;;;;;20.83;13.25;;;8.20;79.30;;;;;;4039444;29;20127;-80
2024/03/08 11:20:57;;;;;;;20.73;13.20;;;8.30;79.40;;;;;;4029908;29;20056;-80
2024/03/08 11:23:03;;;;;;;21.05;13.20;;;8.50;79.40;;;;;;4022070;29;20086;-79
2024/03/08 11:25:09;;;;;;;21.85;13.48;;;8.50;78.60;;;;;;4042440;29;20077;-78
2024/03/08 11:27:11;;;;;;;23.40;13.57;;;8.50;79.20;;;;;;4037497;29;20053;-80
2024/03/08 11:29:39;;;;;;;22.00;13.00;;;8.50;78.60;;;;;;4015509;29;20052;-79
2024/03/08 11:31:41;;;;;;;26.63;15.38;;;8.50;79.00;;;;;;4042033;29;20090;-79
2024/03/08 11:33:49;;;;;;;22.17;13.68;;;8.60;77.50;;;;;;4039961;29;20060;-81
2024/03/08 11:36:02;;;;;;;25.23;14.95;;;8.70;76.70;;;;;;4042781;29;20502;-82
2024/03/08 11:38:11;;;;;;;35.65;19.00;;;8.60;77.10;;;;;;4043885;29;20526;-82
2024/03/08 11:40:16;;;;;;;23.63;13.70;;;8.60;76.70;;;;;;4061666;29;20076;-82
2024/03/08 11:42:19;;;;;;;25.30;15.55;;;8.80;77.60;;;;;;4040290;29;20403;-82
2024/03/08 11:44:20;;;;;;;25.40;15.45;;;8.90;77.90;;;;;;4036373;29;20053;-82
2024/03/08 11:46:28;;;;;;;23.90;14.50;;;9.00;77.30;;;;;;4050412;29;20470;-78
2024/03/08 11:48:28;;;;;;;23.40;14.35;;;9.00;77.40;;;;;;4029149;29;20113;-81
2024/03/08 11:50:32;;;;;;;22.92;14.05;;;9.00;77.10;;;;;;4025867;29;20154;-78
2024/03/08 11:52:34;;;;;;;22.27;13.98;;;9.00;78.00;;;;;;4025420;29;20058;-80
2024/03/08 11:54:36;;;;;;;23.42;13.80;;;9.10;77.60;;;;;;4030157;29;20045;-79
2024/03/08 11:56:37;;;;;;;20.17;13.15;;;9.00;76.00;;;;;;4040479;29;20065;-80
2024/03/08 11:58:40;;;;;;;21.67;13.30;;;9.10;75.40;;;;;;4040996;29;20056;-79
2024/03/08 12:00:42;;;;;;;23.55;13.48;;;9.10;75.00;;;;;;4041104;29;20064;-78
2024/03/08 12:02:50;;;;;;;26.38;16.20;;;9.20;75.60;;;;;;4042038;29;20399;-79
2024/03/08 12:04:57;;;;;;;26.38;15.55;;;9.20;75.80;;;;;;4041669;29;20231;-80
2024/03/08 12:07:08;;;;;;;21.17;13.85;;;9.30;76.30;;;;;;4040732;29;20057;-80
2024/03/08 12:09:10;;;;;;;19.92;12.63;;;9.40;75.90;;;;;;4040310;29;20057;-79
2024/03/08 12:11:14;;;;;;;22.25;12.60;;;9.40;74.30;;;;;;4040346;29;20136;-79
2024/03/08 12:13:17;;;;;;;19.92;11.95;;;9.50;74.70;;;;;;4041133;29;20080;-79
2024/03/08 12:15:20;;;;;;;24.27;13.75;;;9.50;76.00;;;;;;4040530;29;20510;-82
2024/03/08 12:17:22;;;;;;;24.40;14.23;;;9.60;75.50;;;;;;4042530;29;20056;-79
2024/03/08 12:19:28;;;;;;;21.30;13.23;;;9.70;72.80;;;;;;4040291;29;20077;-83
2024/03/08 12:21:34;;;;;;;24.20;14.20;;;9.60;72.50;;;;;;4040148;29;20105;-81
2024/03/08 12:23:37;;;;;;;24.02;14.68;;;9.70;73.10;;;;;;4040485;29;20128;-81
2024/03/08 12:25:41;;;;;;;23.58;14.65;;;9.80;74.60;;;;;;4040147;29;20415;-79
2024/03/08 12:27:45;;;;;;;22.50;13.65;;;10.00;73.30;;;;;;4023988;29;20056;-81
2024/03/08 12:29:47;;;;;;;22.23;13.68;;;10.00;72.20;;;;;;4040312;29;20392;-79
2024/03/08 12:31:53;;;;;;;25.20;13.90;;;10.10;72.50;;;;;;4024055;29;20096;-81
2024/03/08 12:33:58;;;;;;;25.27;16.13;;;10.30;72.70;;;;;;4040211;29;20045;-80
2024/03/08 12:36:02;;;;;;;28.48;16.80;;;10.50;72.60;;;;;;4040264;29;20081;-79
2024/03/08 12:38:05;;;;;;;25.83;16.05;;;10.60;72.70;;;;;;4023609;29;20053;-80
2024/03/08 12:40:09;;;;;;;28.40;16.58;;;10.70;71.80;;;;;;4040357;29;20048;-82
2024/03/08 12:42:11;;;;;;;31.30;19.73;;;10.70;71.50;;;;;;4039754;29;20096;-80
2024/03/08 12:44:13;;;;;;;26.83;16.73;;;10.80;71.10;;;;;;4041266;29;20045;-82
2024/03/08 12:46:15;;;;;;;30.90;18.85;;;10.90;70.80;;;;;;4042362;29;20049;-81
2024/03/08 12:48:16;;;;;;;23.85;15.32;;;11.00;71.00;;;;;;4025188;29;20066;-80
2024/03/08 12:50:19;;;;;;;24.30;15.18;;;11.10;70.20;;;;;;4042463;29;20460;-81
2024/03/08 12:52:22;;;;;;;27.83;15.68;;;11.00;70.60;;;;;;4042278;29;20085;-83
2024/03/08 12:54:24;;;;;;;23.50;14.60;;;11.20;69.70;;;;;;4026521;29;20412;-81
2024/03/08 12:56:30;;;;;;;30.25;15.80;;;11.30;70.20;;;;;;4044332;29;20081;-82
2024/03/08 12:58:32;;;;;;;22.73;14.27;;;11.40;68.10;;;;;;4042214;29;20103;-80
2024/03/08 13:00:36;;;;;;;23.98;14.32;;;11.40;68.70;;;;;;4040516;29;20053;-79
2024/03/08 13:02:38;;;;;;;23.25;14.45;;;11.60;68.60;;;;;;4040015;29;20057;-81
2024/03/08 13:04:40;;;;;;;20.02;13.00;;;11.60;68.20;;;;;;4025726;29;20060;-80
2024/03/08 13:06:41;;;;;;;22.00;13.98;;;11.70;67.20;;;;;;4035632;29;20053;-83
2024/03/08 13:08:44;;;;;;;21.67;12.57;;;11.70;66.10;;;;;;4024557;29;20056;-82
2024/03/08 13:10:47;;;;;;;21.55;13.45;;;11.90;67.10;;;;;;4040470;29;20088;-82
2024/03/08 13:12:49;;;;;;;22.60;13.50;;;12.20;65.80;;;;;;4040085;29;20068;-81
2024/03/08 13:14:52;;;;;;;21.02;12.85;;;12.40;65.10;;;;;;4041026;29;20109;-81
2024/03/08 13:16:54;;;;;;;19.13;12.63;;;12.60;64.00;;;;;;4040495;29;20060;-81
2024/03/08 13:18:57;;;;;;;21.92;13.88;;;12.60;64.10;;;;;;4039901;29;20080;-81
2024/03/08 13:20:59;;;;;;;24.63;14.75;;;12.90;63.70;;;;;;4039396;29;20057;-81
2024/03/08 13:23:01;;;;;;;24.02;14.30;;;13.20;63.40;;;;;;4024042;29;20465;-81
2024/03/08 13:25:06;;;;;;;21.13;12.57;;;13.20;61.60;;;;;;4023038;29;20046;-81
2024/03/08 13:27:19;;;;;;;19.17;12.23;;;13.40;61.20;;;;;;4039701;29;20156;-81
2024/03/08 13:29:21;;;;;;;24.27;13.98;;;13.60;62.30;;;;;;4038641;29;20139;-81
2024/03/08 13:31:23;;;;;;;20.17;13.15;;;13.80;59.00;;;;;;4022725;29;20094;-80
2024/03/08 13:33:24;;;;;;;21.27;13.55;;;14.00;59.50;;;;;;4039769;29;20056;-78
2024/03/08 13:35:28;;;;;;;22.48;13.30;;;14.30;57.20;;;;;;4025745;29;20105;-80
2024/03/08 13:37:29;;;;;;;20.77;12.90;;;14.50;57.70;;;;;;4024056;29;20057;-80
2024/03/08 13:39:37;;;;;;;20.70;13.45;;;14.80;56.80;;;;;;4031439;29;20061;-80
2024/03/08 13:41:40;;;;;;;23.17;13.88;;;15.00;55.40;;;;;;4039557;29;20143;-80
2024/03/08 13:43:42;;;;;;;22.77;14.35;;;15.10;54.90;;;;;;4038949;29;20052;-78
2024/03/08 13:45:44;;;;;;;20.80;13.38;;;15.30;54.90;;;;;;4039503;29;20053;-80
2024/03/08 13:47:46;;;;;;;20.70;12.50;;;15.60;54.40;;;;;;4023841;29;20053;-79
2024/03/08 13:49:50;;;;;;;20.73;13.95;;;15.90;53.00;;;;;;4038660;29;20057;-80
2024/03/08 13:51:54;;;;;;;21.60;13.90;;;16.30;50.70;;;;;;4038719;29;20093;-78
2024/03/08 13:53:56;;;;;;;22.13;13.70;;;17.20;47.10;;;;;;4038722;29;20057;-76
2024/03/08 13:55:58;;;;;;;19.45;12.88;;;21.60;41.90;;;;;;4038717;29;20056;-79
2024/03/08 13:58:02;;;;;;;19.85;13.05;;;25.30;34.20;;;;;;4021850;29;20098;-73
2024/03/08 14:00:06;;;;;;;22.13;13.32;;;27.90;29.50;;;;;;4049141;29;20060;-80
2024/03/08 14:02:10;;;;;;;21.75;13.35;;;29.60;26.90;;;;;;4044926;29;20077;-79
2024/03/08 14:04:13;;;;;;;20.33;12.93;;;31.20;24.60;;;;;;4045887;29;20075;-81
2024/03/08 14:06:15;;;;;;;19.33;13.50;;;32.50;23.60;;;;;;4043935;29;20126;-78
2024/03/08 14:08:17;;;;;;;19.50;13.65;;;33.30;22.90;;;;;;4036465;29;20121;-77
2024/03/08 14:10:19;;;;;;;19.55;13.88;;;34.20;21.10;;;;;;4021815;29;20069;-75
2024/03/08 14:12:23;;;;;;;19.50;14.50;;;34.30;21.00;;;;;;4032720;29;20113;-77
2024/03/08 14:14:27;;;;;;;18.25;13.63;;;35.10;20.40;;;;;;4037014;29;20088;-77
2024/03/08 14:16:28;;;;;;;21.42;14.32;;;35.60;19.90;;;;;;4019412;29;20050;-78
2024/03/08 14:18:30;;;;;;;17.00;13.35;;;36.10;19.70;;;;;;4036738;29;20057;-80
2024/03/08 14:20:32;;;;;;;17.65;14.10;;;36.60;20.20;;;;;;4032902;29;20061;-77
2024/03/08 14:22:34;;;;;;;18.55;13.88;;;37.20;19.60;;;;;;4035535;29;20053;-79
2024/03/08 14:24:36;;;;;;;17.92;14.15;;;37.10;19.40;;;;;;4036583;29;20502;-78
2024/03/08 14:26:38;;;;;;;18.73;14.20;;;37.10;18.90;;;;;;4036874;29;20053;-76
2024/03/08 14:28:40;;;;;;;19.35;15.00;;;37.80;18.70;;;;;;4036082;29;20077;-77
2024/03/08 14:30:44;;;;;;;18.23;14.30;;;38.50;18.40;;;;;;4036793;29;20495;-79
2024/03/08 14:32:47;;;;;;;17.55;14.40;;;38.50;17.80;;;;;;4036549;29;20053;-77
2024/03/08 14:34:49;;;;;;;18.35;14.10;;;38.90;17.70;;;;;;4038872;29;20064;-76
2024/03/08 14:36:51;;;;;;;17.13;14.10;;;39.50;17.20;;;;;;4033546;29;20053;-78
2024/03/08 14:38:53;;;;;;;17.38;14.32;;;39.90;17.20;;;;;;4036333;29;20097;-77
2024/03/08 14:40:55;;;;;;;18.67;14.35;;;39.70;17.10;;;;;;4036192;29;20081;-75
2024/03/08 14:42:58;;;;;;;18.85;14.65;;;39.90;16.80;;;;;;4036694;29;20045;-80
2024/03/08 14:45:00;;;;;;;19.00;16.67;;;39.60;16.80;;;;;;4036975;29;20052;-77
2024/03/08 14:47:05;;;;;;;16.95;15.07;;;39.90;16.70;;;;;;4036569;29;20053;-78
2024/03/08 14:49:07;;;;;;;18.55;15.60;;;40.30;17.00;;;;;;4037679;29;20053;-74
2024/03/08 14:51:10;;;;;;;17.02;15.23;;;40.60;16.60;;;;;;4037710;29;20045;-80
2024/03/08 14:53:15;;;;;;;19.15;16.55;;;40.80;16.60;;;;;;4038383;29;20464;-75
2024/03/08 14:55:19;;;;;;;18.30;15.38;;;40.40;16.10;;;;;;4038755;29;20136;-77
2024/03/08 14:57:21;;;;;;;19.02;15.05;;;40.10;16.20;;;;;;4035958;29;20064;-79
2024/03/08 14:59:23;;;;;;;18.58;16.05;;;40.00;16.50;;;;;;4036467;29;20052;-80
2024/03/08 15:01:28;;;;;;;18.30;15.88;;;40.00;16.40;;;;;;4035320;29;20096;-76
2024/03/08 15:03:32;;;;;;;19.33;14.93;;;39.10;16.70;;;;;;4036766;29;20053;-76
2024/03/08 15:05:37;;;;;;;18.65;14.23;;;37.60;17.00;;;;;;4035631;29;20088;-77
2024/03/08 15:07:39;;;;;;;20.00;14.50;;;37.30;17.70;;;;;;4035104;29;20049;-75
2024/03/08 15:09:43;;;;;;;19.05;14.07;;;36.90;17.90;;;;;;4035667;29;20534;-77
2024/03/08 15:11:49;;;;;;;18.20;14.43;;;36.20;17.90;;;;;;4035761;29;20053;-78
2024/03/08 15:13:53;;;;;;;17.05;13.88;;;35.30;18.10;;;;;;4035729;29;20057;-78
2024/03/08 15:15:55;;;;;;;18.35;14.20;;;33.60;18.80;;;;;;4035604;29;20091;-77
2024/03/08 15:17:58;;;;;;;19.75;14.20;;;32.90;19.60;;;;;;4036723;29;20056;-78
2024/03/08 15:20:01;;;;;;;17.67;14.32;;;32.10;19.90;;;;;;4036902;29;20152;-79
2024/03/08 15:22:03;;;;;;;16.90;13.80;;;31.80;20.30;;;;;;4039979;29;20053;-78
2024/03/08 15:24:09;;;;;;;17.40;13.68;;;32.10;20.30;;;;;;4041427;29;20053;-78
2024/03/08 15:26:10;;;;;;;18.98;13.52;;;32.00;20.10;;;;;;4041397;29;20085;-77
2024/03/08 15:28:15;;;;;;;19.27;14.68;;;31.50;20.60;;;;;;4038564;29;20053;-77
2024/03/08 15:30:16;;;;;;;16.30;13.82;;;31.30;20.50;;;;;;4038649;29;20084;-77
2024/03/08 15:32:20;;;;;;;18.77;14.00;;;31.10;20.90;;;;;;4038882;29;20117;-78
2024/03/08 15:34:23;;;;;;;17.67;14.07;;;30.90;21.30;;;;;;4038820;29;20467;-78
2024/03/08 15:36:30;;;;;;;17.05;14.25;;;30.60;21.40;;;;;;4037272;29;20085;-78
2024/03/08 15:38:31;;;;;;;18.95;14.70;;;29.80;21.90;;;;;;4039494;29;20068;-77
2024/03/08 15:40:34;;;;;;;17.83;13.98;;;29.00;22.30;;;;;;4038202;29;20499;-77
2024/03/08 15:42:36;;;;;;;22.88;14.82;;;29.00;23.10;;;;;;4039061;29;20053;-76
2024/03/08 15:44:38;;;;;;;18.88;14.20;;;29.30;22.90;;;;;;4038670;29;20057;-77
2024/03/08 15:46:40;;;;;;;18.75;14.43;;;29.80;23.00;;;;;;4038695;29;20459;-75
2024/03/08 15:48:41;;;;;;;18.30;14.85;;;30.10;22.70;;;;;;4038924;29;20140;-78
2024/03/08 15:50:43;;;;;;;18.58;15.00;;;30.30;22.40;;;;;;4039003;29;20519;-75
2024/03/08 15:52:47;;;;;;;18.50;14.77;;;30.10;22.40;;;;;;4039364;29;20116;-79
2024/03/08 15:54:49;;;;;;;19.27;15.13;;;29.40;22.70;;;;;;4025772;29;20096;-77
2024/03/08 15:56:51;;;;;;;19.00;14.77;;;28.80;23.90;;;;;;4038675;29;20065;-75
2024/03/08 15:58:53;;;;;;;18.42;14.20;;;28.20;23.80;;;;;;4038351;29;20065;-77
2024/03/08 16:00:56;;;;;;;18.92;14.70;;;28.10;24.30;;;;;;4037910;29;20088;-77
2024/03/08 16:02:57;;;;;;;24.48;18.02;;;27.40;24.60;;;;;;4037909;29;20060;-77
2024/03/08 16:04:58;;;;;;;17.83;13.98;;;26.80;24.50;;;;;;4037957;29;20045;-78
2024/03/08 16:07:01;;;;;;;18.83;14.23;;;25.90;25.80;;;;;;4038271;29;20184;-79
2024/03/08 16:09:04;;;;;;;19.33;14.60;;;25.70;25.80;;;;;;4038051;29;20084;-76
2024/03/08 16:11:07;;;;;;;17.45;13.95;;;25.40;25.80;;;;;;4038038;29;20495;-77
2024/03/08 16:13:10;;;;;;;20.45;14.73;;;24.50;26.80;;;;;;4038004;29;20555;-75
2024/03/08 16:15:12;;;;;;;20.38;14.65;;;24.10;27.40;;;;;;4037789;29;20061;-77
2024/03/08 16:17:14;;;;;;;18.05;14.13;;;24.20;27.50;;;;;;4038775;29;20139;-77
2024/03/08 16:19:16;;;;;;;19.27;13.82;;;24.20;27.40;;;;;;4035685;29;20085;-77
2024/03/08 16:21:17;;;;;;;18.83;13.82;;;24.40;27.40;;;;;;4021125;29;20054;-77
2024/03/08 16:23:20;;;;;;;20.38;14.82;;;24.20;26.90;;;;;;4038684;29;20113;-78
2024/03/08 16:25:23;;;;;;;20.52;15.80;;;24.10;26.80;;;;;;4039759;29;20404;-79
2024/03/08 16:27:25;;;;;;;19.58;14.13;;;23.70;28.00;;;;;;4040745;29;20074;-79
2024/03/08 16:29:26;;;;;;;18.70;13.77;;;23.80;28.20;;;;;;4040426;29;20133;-78
2024/03/08 16:31:28;;;;;;;18.58;13.65;;;23.60;28.70;;;;;;4039696;29;20117;-78